Terminal Aerodrome Forecast
Issued by NWS Tuscon, AZ

Current Version | Previous Version | Text Only | Print | Product List | Glossary On
Versions: 1 2 3 4 5 6 7 8 9 10 11 12 13 14 15
000
FTUS45 KTWC 011700
TAFTUS
TAF
KTUS 011720Z 0118/0218 17010KT P6SM SCT060 SCT130
     FM012000 21014G22KT P6SM SCT060 BKN130
     FM020200 20008KT P6SM SCT070 BKN130
     FM021600 18008KT P6SM VCSH BKN050=

USA.gov is the U.S. government's official web portal to all federal, state and local government web resources and services.